createdAt,value
2023-06-30T00:00:14.788Z,20.77
2023-06-30T00:02:20.572Z,20.75
2023-06-30T00:04:25.427Z,20.74
2023-06-30T00:06:30.354Z,20.73
2023-06-30T00:08:35.134Z,20.74
2023-06-30T00:10:39.973Z,20.77
2023-06-30T00:12:44.660Z,20.82
2023-06-30T00:14:49.408Z,20.84
2023-06-30T00:16:54.157Z,20.85
2023-06-30T00:18:59.270Z,20.86
2023-06-30T00:21:03.932Z,20.86
2023-06-30T00:23:08.813Z,20.87
2023-06-30T00:25:15.273Z,20.86
2023-06-30T00:27:20.231Z,20.86
2023-06-30T00:29:25.061Z,20.84
2023-06-30T00:31:29.988Z,20.80
2023-06-30T00:33:34.780Z,20.78
2023-06-30T00:35:39.437Z,20.78
2023-06-30T00:37:44.154Z,20.80
2023-06-30T00:39:48.852Z,20.83
2023-06-30T00:41:53.644Z,20.83
2023-06-30T00:43:58.414Z,20.85
2023-06-30T00:46:04.070Z,20.87
2023-06-30T00:48:09.283Z,20.87
2023-06-30T00:50:14.591Z,20.87
2023-06-30T00:52:19.431Z,20.86
2023-06-30T00:54:24.641Z,20.84
2023-06-30T00:56:29.380Z,20.84
2023-06-30T00:58:34.574Z,20.84
2023-06-30T01:00:39.378Z,20.82
2023-06-30T01:05:37.404Z,20.76
2023-06-30T01:07:49.345Z,20.69
2023-06-30T01:09:58.211Z,20.61
2023-06-30T01:12:03.637Z,20.52
2023-06-30T01:14:10.642Z,20.41
2023-06-30T01:16:17.625Z,20.27
2023-06-30T01:18:24.237Z,20.14
2023-06-30T01:20:33.706Z,19.97
2023-06-30T01:22:45.020Z,19.77
2023-06-30T01:24:54.831Z,19.60
2023-06-30T01:26:59.885Z,19.48
2023-06-30T01:29:05.918Z,19.38
2023-06-30T01:31:11.569Z,19.31
2023-06-30T01:33:19.640Z,19.27
2023-06-30T01:35:25.349Z,19.22
2023-06-30T01:37:30.462Z,19.20
2023-06-30T01:39:36.279Z,19.17
2023-06-30T01:41:41.342Z,19.11
2023-06-30T01:43:48.403Z,19.09
2023-06-30T01:45:57.088Z,19.07
2023-06-30T02:03:24.112Z,18.94
2023-06-30T02:05:29.393Z,18.91
2023-06-30T02:07:35.010Z,18.90
2023-06-30T02:09:47.823Z,18.90
2023-06-30T02:11:53.929Z,18.89
2023-06-30T02:14:00.614Z,18.85
2023-06-30T02:16:06.086Z,18.79
2023-06-30T02:18:11.068Z,18.75
2023-06-30T02:20:17.098Z,18.70
2023-06-30T02:22:22.296Z,18.66
2023-06-30T02:24:27.288Z,18.62
2023-06-30T02:26:32.589Z,18.62
2023-06-30T02:28:37.451Z,18.64
2023-06-30T02:30:42.348Z,18.66
2023-06-30T02:32:47.353Z,18.65
2023-06-30T02:34:52.488Z,18.67
2023-06-30T02:36:57.641Z,18.68
2023-06-30T02:39:03.783Z,18.70
2023-06-30T02:41:08.678Z,18.74
2023-06-30T02:43:13.679Z,18.74
2023-06-30T02:45:18.941Z,18.76
2023-06-30T02:47:24.132Z,18.75
2023-06-30T02:49:29.514Z,18.76
2023-06-30T02:51:35.424Z,18.77
2023-06-30T02:53:40.699Z,18.75
2023-06-30T02:55:45.909Z,18.72
2023-06-30T02:57:52.205Z,18.71
2023-06-30T02:59:57.262Z,18.69
2023-06-30T03:02:02.287Z,18.66
2023-06-30T03:04:08.408Z,18.66
2023-06-30T03:06:13.781Z,18.62
2023-06-30T03:08:18.940Z,18.60
2023-06-30T03:10:24.804Z,18.58
2023-06-30T03:12:30.243Z,18.59
2023-06-30T03:14:35.997Z,18.61
2023-06-30T03:16:41.035Z,18.62
2023-06-30T03:18:46.714Z,18.66
2023-06-30T03:20:51.908Z,18.71
2023-06-30T03:22:56.754Z,18.75
2023-06-30T03:25:02.273Z,18.76
2023-06-30T03:27:07.784Z,18.77
2023-06-30T03:29:12.887Z,18.77
2023-06-30T03:31:17.833Z,18.77
2023-06-30T03:33:22.898Z,18.78
2023-06-30T03:35:27.906Z,18.82
2023-06-30T03:37:33.006Z,18.87
2023-06-30T03:39:38.048Z,18.93
2023-06-30T03:41:43.138Z,18.98
2023-06-30T03:43:48.202Z,19.05
2023-06-30T03:45:53.262Z,19.12
2023-06-30T03:47:59.037Z,19.16
2023-06-30T03:50:06.226Z,19.21
2023-06-30T03:52:11.266Z,19.24
2023-06-30T03:54:18.869Z,19.26
2023-06-30T03:56:24.511Z,19.27
2023-06-30T03:58:29.342Z,19.29
2023-06-30T04:00:34.219Z,19.31
2023-06-30T04:02:39.274Z,19.35
2023-06-30T04:04:50.214Z,19.41
2023-06-30T04:06:58.215Z,19.47
2023-06-30T04:09:03.303Z,19.52
2023-06-30T04:11:08.355Z,19.54
2023-06-30T04:13:13.358Z,19.57
2023-06-30T04:15:18.400Z,19.58
2023-06-30T04:17:23.208Z,19.58
2023-06-30T04:19:28.157Z,19.59
2023-06-30T04:21:33.054Z,19.61
2023-06-30T04:23:38.577Z,19.61
2023-06-30T04:25:43.644Z,19.60
2023-06-30T04:30:15.008Z,19.54
2023-06-30T04:32:20.071Z,19.50
2023-06-30T04:34:28.012Z,19.49
2023-06-30T04:36:32.978Z,19.48
2023-06-30T04:38:37.898Z,19.50
2023-06-30T04:40:42.861Z,19.53
2023-06-30T04:42:47.903Z,19.56
2023-06-30T04:44:52.890Z,19.61
2023-06-30T04:46:57.895Z,19.64
2023-06-30T04:49:02.882Z,19.68
2023-06-30T04:51:08.020Z,19.73
2023-06-30T04:53:12.926Z,19.78
2023-06-30T04:55:17.918Z,19.87
2023-06-30T04:57:22.824Z,19.95
2023-06-30T04:59:27.722Z,20.03
2023-06-30T05:01:32.698Z,20.12
2023-06-30T05:03:37.747Z,20.21
2023-06-30T05:05:42.996Z,20.31
2023-06-30T05:07:48.015Z,20.41
2023-06-30T05:09:52.966Z,20.50
2023-06-30T05:11:58.004Z,20.62
2023-06-30T05:14:02.882Z,20.72
2023-06-30T05:16:12.038Z,20.77
2023-06-30T05:18:19.802Z,20.80
2023-06-30T05:20:24.735Z,20.83
2023-06-30T05:22:29.609Z,20.86
2023-06-30T05:24:34.599Z,20.91
2023-06-30T05:26:39.429Z,20.97
2023-06-30T05:28:52.766Z,21.02
2023-06-30T05:31:05.756Z,21.06
2023-06-30T05:33:10.636Z,21.09
2023-06-30T05:35:15.588Z,21.16
2023-06-30T05:37:20.630Z,21.22
2023-06-30T05:39:25.456Z,21.28
2023-06-30T05:41:30.314Z,21.31
2023-06-30T05:43:38.836Z,21.38
2023-06-30T05:45:44.007Z,21.44
2023-06-30T05:47:49.137Z,21.48
2023-06-30T05:49:54.223Z,21.55
2023-06-30T05:51:59.111Z,21.56
2023-06-30T05:54:04.244Z,21.60
2023-06-30T05:56:09.275Z,21.69
2023-06-30T05:58:14.312Z,21.81
2023-06-30T06:00:23.369Z,21.90
2023-06-30T06:02:28.743Z,21.95
2023-06-30T06:04:34.048Z,22.02
2023-06-30T06:06:39.138Z,22.10
2023-06-30T06:08:46.742Z,22.18
2023-06-30T06:10:51.661Z,22.25
2023-06-30T06:12:56.985Z,22.32
2023-06-30T06:15:01.914Z,22.38
2023-06-30T06:17:07.167Z,22.44
2023-06-30T06:19:12.116Z,22.50
2023-06-30T06:21:17.610Z,22.60
2023-06-30T06:23:22.819Z,22.68
2023-06-30T06:25:27.842Z,22.70
2023-06-30T06:27:36.095Z,22.67
2023-06-30T06:29:41.007Z,22.62
2023-06-30T06:31:46.063Z,22.56
2023-06-30T06:33:51.185Z,22.51
2023-06-30T06:35:56.574Z,22.46
2023-06-30T06:38:01.567Z,22.45
2023-06-30T06:40:08.214Z,22.43
2023-06-30T06:42:13.039Z,22.43
2023-06-30T06:44:18.166Z,22.48
2023-06-30T06:46:23.053Z,22.52
2023-06-30T06:48:29.044Z,22.53
2023-06-30T06:50:36.438Z,22.53
2023-06-30T06:52:41.618Z,22.60
2023-06-30T06:54:47.306Z,22.67
2023-06-30T06:56:52.274Z,22.69
2023-06-30T06:58:57.095Z,22.75
2023-06-30T07:01:02.169Z,22.87
2023-06-30T07:03:07.091Z,22.99
2023-06-30T07:05:14.483Z,23.08
2023-06-30T07:07:19.345Z,23.17
2023-06-30T07:09:24.470Z,23.18
2023-06-30T07:11:29.388Z,23.17
2023-06-30T07:13:34.281Z,23.26
2023-06-30T07:15:39.231Z,23.36
2023-06-30T07:17:44.676Z,23.51
2023-06-30T07:19:49.752Z,23.59
2023-06-30T07:21:55.829Z,23.62
2023-06-30T07:24:01.093Z,23.60
2023-06-30T07:26:06.063Z,23.61
2023-06-30T07:28:11.155Z,23.70
2023-06-30T07:30:17.164Z,23.75
2023-06-30T07:32:22.103Z,23.74
2023-06-30T07:34:27.560Z,23.74
2023-06-30T07:36:32.450Z,23.78
2023-06-30T07:38:37.247Z,23.87
2023-06-30T07:40:54.838Z,23.90
2023-06-30T07:43:01.991Z,23.91
2023-06-30T07:45:09.466Z,23.94
2023-06-30T07:47:14.461Z,23.96
2023-06-30T07:49:19.613Z,24.00
2023-06-30T07:51:24.977Z,24.01
2023-06-30T07:53:30.021Z,24.04
2023-06-30T07:55:35.041Z,24.12
2023-06-30T07:57:40.288Z,24.16
2023-06-30T07:59:45.177Z,24.18
2023-06-30T08:01:50.127Z,24.16
2023-06-30T08:03:55.289Z,24.15
2023-06-30T08:06:00.772Z,24.24
2023-06-30T08:08:06.517Z,24.35
2023-06-30T08:10:12.434Z,24.43
2023-06-30T08:12:17.415Z,24.39
2023-06-30T08:14:22.589Z,24.44
2023-06-30T08:16:28.467Z,24.45
2023-06-30T08:18:34.962Z,24.47
2023-06-30T08:20:40.381Z,24.54
2023-06-30T08:23:06.663Z,24.52
2023-06-30T08:25:11.793Z,24.54
2023-06-30T08:27:16.845Z,24.58
2023-06-30T08:29:21.656Z,24.62
2023-06-30T08:31:26.753Z,24.70
2023-06-30T08:35:40.203Z,24.78
2023-06-30T08:37:45.439Z,24.79
2023-06-30T08:39:50.302Z,24.84
2023-06-30T08:41:56.816Z,24.91
2023-06-30T08:44:03.615Z,24.97
2023-06-30T08:46:10.178Z,25.01
2023-06-30T08:48:16.946Z,25.04
2023-06-30T08:50:22.949Z,25.13
2023-06-30T08:52:28.105Z,25.22
2023-06-30T08:54:34.299Z,25.30
2023-06-30T08:56:43.232Z,25.36
2023-06-30T08:58:48.476Z,25.36
2023-06-30T09:00:54.169Z,25.36
2023-06-30T09:02:59.482Z,25.37
2023-06-30T09:05:05.614Z,25.41
2023-06-30T09:07:14.102Z,25.40
2023-06-30T09:09:26.290Z,25.46
2023-06-30T09:11:33.024Z,25.57
2023-06-30T09:13:40.901Z,25.70
2023-06-30T09:15:46.990Z,25.79
2023-06-30T09:17:52.898Z,25.79
2023-06-30T09:19:59.049Z,25.74
2023-06-30T09:22:54.951Z,25.73
2023-06-30T09:24:31.010Z,25.72
2023-06-30T09:26:36.039Z,25.75
2023-06-30T09:28:43.314Z,25.77
2023-06-30T09:30:48.999Z,25.89
2023-06-30T09:32:56.215Z,26.05
2023-06-30T09:35:05.933Z,26.10
2023-06-30T09:37:19.308Z,26.12
2023-06-30T09:39:25.258Z,26.19
2023-06-30T09:41:31.968Z,26.28
2023-06-30T09:43:38.024Z,26.42
2023-06-30T09:45:49.406Z,26.48
2023-06-30T09:47:55.701Z,26.55
2023-06-30T09:50:00.781Z,26.64
2023-06-30T09:52:06.822Z,26.75
2023-06-30T09:54:12.468Z,26.80
2023-06-30T09:56:23.432Z,26.79
2023-06-30T09:58:28.519Z,26.76
2023-06-30T10:00:35.977Z,26.80
2023-06-30T10:02:42.420Z,26.88
2023-06-30T10:04:49.373Z,26.99
2023-06-30T10:06:55.510Z,27.07
2023-06-30T10:09:04.443Z,27.13
2023-06-30T10:11:10.645Z,27.05
2023-06-30T10:13:17.639Z,27.00
2023-06-30T10:15:22.629Z,27.06
2023-06-30T10:17:28.292Z,27.17
2023-06-30T10:19:36.234Z,27.27
2023-06-30T10:21:41.378Z,27.29
2023-06-30T10:23:49.785Z,27.30
2023-06-30T10:25:55.532Z,27.29
2023-06-30T10:28:00.929Z,27.31
2023-06-30T10:30:07.102Z,27.24
2023-06-30T10:32:12.466Z,27.26
2023-06-30T10:34:17.941Z,27.35
2023-06-30T10:36:24.070Z,27.47
2023-06-30T10:38:29.578Z,27.62
2023-06-30T10:40:34.577Z,27.78
2023-06-30T10:42:45.802Z,27.89
2023-06-30T10:44:50.672Z,27.93
2023-06-30T10:46:58.252Z,27.92
2023-06-30T10:49:07.918Z,27.92
2023-06-30T10:51:14.926Z,27.91
2023-06-30T10:53:20.497Z,27.97
2023-06-30T10:55:29.082Z,28.09
2023-06-30T10:57:37.508Z,28.11
2023-06-30T10:59:44.027Z,27.97
2023-06-30T11:02:23.759Z,27.88
2023-06-30T11:04:38.376Z,27.98
2023-06-30T11:07:02.808Z,28.12
2023-06-30T11:09:11.270Z,28.28
2023-06-30T11:11:20.543Z,28.35
2023-06-30T11:13:38.420Z,28.42
2023-06-30T11:15:51.855Z,28.50
2023-06-30T11:18:03.370Z,28.57
2023-06-30T11:20:16.045Z,28.53
2023-06-30T11:22:30.299Z,28.53
2023-06-30T11:24:36.761Z,28.60
2023-06-30T11:26:44.978Z,28.67
2023-06-30T11:28:50.550Z,28.77
2023-06-30T11:30:55.654Z,28.86
2023-06-30T11:33:01.307Z,28.94
2023-06-30T11:35:07.840Z,29.02
2023-06-30T11:37:12.898Z,29.05
2023-06-30T11:39:18.280Z,29.01
2023-06-30T11:41:24.405Z,28.96
2023-06-30T11:43:34.682Z,29.03
2023-06-30T11:45:40.078Z,29.09
2023-06-30T11:47:45.906Z,29.14
2023-06-30T11:49:51.205Z,29.25
2023-06-30T11:51:57.446Z,29.34
2023-06-30T11:54:02.535Z,29.32
2023-06-30T11:56:07.908Z,29.39
2023-06-30T11:58:18.162Z,29.44
2023-06-30T12:00:25.145Z,29.48
2023-06-30T12:02:36.103Z,29.46
2023-06-30T12:04:48.548Z,29.47
2023-06-30T12:06:57.231Z,29.56
2023-06-30T12:09:04.097Z,29.69
2023-06-30T12:11:09.252Z,29.80
2023-06-30T12:13:16.725Z,29.87
2023-06-30T12:15:21.696Z,29.95
2023-06-30T12:17:29.016Z,29.97
2023-06-30T12:19:34.154Z,30.05
2023-06-30T12:21:53.246Z,30.12
2023-06-30T12:23:58.995Z,30.14
2023-06-30T12:26:04.244Z,30.11
2023-06-30T12:28:09.474Z,30.07
2023-06-30T12:30:18.528Z,30.10
2023-06-30T12:32:26.591Z,30.08
2023-06-30T12:34:35.412Z,29.99
2023-06-30T12:36:40.539Z,29.91
2023-06-30T12:38:46.111Z,29.87
2023-06-30T12:40:51.942Z,29.88
2023-06-30T12:42:57.602Z,29.95
2023-06-30T12:45:02.615Z,30.11
2023-06-30T12:47:08.784Z,30.30
2023-06-30T12:49:13.949Z,30.45
2023-06-30T12:51:19.053Z,30.62
2023-06-30T12:53:24.120Z,30.73
2023-06-30T12:55:29.413Z,30.80
2023-06-30T12:57:34.338Z,30.88
2023-06-30T12:59:39.224Z,30.92
2023-06-30T13:01:44.130Z,31.02
2023-06-30T13:03:49.485Z,31.13
2023-06-30T13:05:54.552Z,31.19
2023-06-30T13:07:59.579Z,31.24
2023-06-30T13:10:09.222Z,31.28
2023-06-30T13:12:14.057Z,31.35
2023-06-30T13:14:18.857Z,31.41
2023-06-30T13:16:23.829Z,31.46
2023-06-30T13:18:28.817Z,31.46
2023-06-30T13:20:33.758Z,31.27
2023-06-30T13:22:50.710Z,31.12
2023-06-30T13:25:01.101Z,31.09
2023-06-30T13:27:06.921Z,31.14
2023-06-30T13:29:12.646Z,31.19
2023-06-30T13:31:17.541Z,31.17
2023-06-30T13:33:23.068Z,31.22
2023-06-30T13:35:27.988Z,31.28
2023-06-30T13:37:33.365Z,31.36
2023-06-30T13:39:39.780Z,31.46
2023-06-30T13:41:45.037Z,31.51
2023-06-30T13:43:49.955Z,31.53
2023-06-30T13:45:54.965Z,31.60
2023-06-30T13:47:59.915Z,31.57
2023-06-30T13:50:05.527Z,31.55
2023-06-30T13:52:10.467Z,31.61
2023-06-30T13:54:15.257Z,31.67
2023-06-30T13:56:20.107Z,31.72
2023-06-30T13:58:25.297Z,31.74
2023-06-30T14:00:32.042Z,31.76
2023-06-30T14:02:37.012Z,31.73
2023-06-30T14:04:41.934Z,31.77
2023-06-30T14:06:46.857Z,31.82
2023-06-30T14:08:51.679Z,31.83
2023-06-30T14:10:57.499Z,31.83
2023-06-30T14:13:03.947Z,31.71
2023-06-30T14:15:10.592Z,31.54
2023-06-30T14:17:15.503Z,31.50
2023-06-30T14:19:20.324Z,31.53
2023-06-30T14:21:25.575Z,31.59
2023-06-30T14:23:30.608Z,31.69
2023-06-30T14:25:35.538Z,31.75
2023-06-30T14:27:40.459Z,31.78
2023-06-30T14:29:45.581Z,31.80
2023-06-30T14:31:50.345Z,31.81
2023-06-30T14:33:55.314Z,31.86
2023-06-30T14:36:00.204Z,31.89
2023-06-30T14:38:05.019Z,31.92
2023-06-30T14:40:11.976Z,31.92
2023-06-30T14:42:30.990Z,31.95
2023-06-30T14:44:37.360Z,31.96
2023-06-30T14:46:42.196Z,31.95
2023-06-30T14:48:47.162Z,31.90
2023-06-30T14:50:55.012Z,31.89
2023-06-30T14:52:59.774Z,31.90
2023-06-30T14:55:05.202Z,31.92
2023-06-30T14:57:10.075Z,31.91
2023-06-30T14:59:15.036Z,31.90
2023-06-30T15:01:20.282Z,31.90
2023-06-30T15:03:25.537Z,31.92
2023-06-30T15:05:30.706Z,31.89
2023-06-30T15:07:35.699Z,31.87
2023-06-30T15:09:40.690Z,31.82
2023-06-30T15:11:48.634Z,31.77
2023-06-30T15:13:53.551Z,31.65
2023-06-30T15:18:23.453Z,31.51
2023-06-30T15:20:28.321Z,31.56
2023-06-30T15:22:33.213Z,31.60
2023-06-30T15:24:41.093Z,31.68
2023-06-30T15:26:46.247Z,31.72
2023-06-30T15:28:51.229Z,31.75
2023-06-30T15:30:56.248Z,31.68
2023-06-30T15:33:01.217Z,31.59
2023-06-30T15:35:07.506Z,31.50
2023-06-30T15:37:12.918Z,31.28
2023-06-30T15:39:17.908Z,31.14
2023-06-30T15:41:23.464Z,31.06
2023-06-30T15:43:28.516Z,31.03
2023-06-30T15:45:33.442Z,30.97
2023-06-30T15:47:38.736Z,30.88
2023-06-30T15:49:43.822Z,30.80
2023-06-30T15:51:51.306Z,30.77
2023-06-30T15:53:56.356Z,30.74
2023-06-30T15:56:01.361Z,30.70
2023-06-30T15:58:06.314Z,30.66
2023-06-30T16:00:13.291Z,30.61
2023-06-30T16:02:20.061Z,30.57
2023-06-30T16:04:25.062Z,30.53
2023-06-30T16:06:30.011Z,30.49
2023-06-30T16:08:36.066Z,30.42
2023-06-30T16:10:40.905Z,30.32
2023-06-30T16:12:45.884Z,30.28
2023-06-30T16:14:50.701Z,30.21
2023-06-30T16:16:55.710Z,30.14
2023-06-30T16:19:00.972Z,30.08
2023-06-30T16:21:06.038Z,30.01
2023-06-30T16:23:11.125Z,29.95
2023-06-30T16:25:16.278Z,29.88
2023-06-30T16:27:21.144Z,29.79
2023-06-30T16:29:32.419Z,29.68
2023-06-30T16:31:37.384Z,29.58
2023-06-30T16:33:42.826Z,29.51
2023-06-30T16:35:48.321Z,29.45
2023-06-30T16:37:54.057Z,29.40
2023-06-30T16:39:59.053Z,29.35
2023-06-30T16:42:04.165Z,29.29
2023-06-30T16:44:09.166Z,29.23
2023-06-30T16:46:14.158Z,29.16
2023-06-30T16:48:19.159Z,29.12
2023-06-30T16:50:24.564Z,29.08
2023-06-30T16:52:29.548Z,29.01
2023-06-30T16:54:34.372Z,28.97
2023-06-30T16:56:39.448Z,28.92
2023-06-30T16:58:44.430Z,28.86
2023-06-30T17:00:49.502Z,28.79
2023-06-30T17:02:55.824Z,28.72
2023-06-30T17:05:00.884Z,28.64
2023-06-30T17:07:06.631Z,28.52
2023-06-30T17:09:12.237Z,28.38
2023-06-30T17:11:18.481Z,28.25
2023-06-30T17:13:23.792Z,28.15
2023-06-30T17:15:29.681Z,28.06
2023-06-30T17:17:35.756Z,27.96
2023-06-30T17:19:41.780Z,27.86
2023-06-30T17:21:47.536Z,27.72
2023-06-30T17:23:52.867Z,27.59
2023-06-30T17:25:58.589Z,27.40
2023-06-30T17:28:04.502Z,27.20
2023-06-30T17:30:11.907Z,27.03
2023-06-30T17:32:17.224Z,26.81
2023-06-30T17:34:22.648Z,26.46
2023-06-30T17:36:27.732Z,25.92
2023-06-30T17:38:33.194Z,25.41
2023-06-30T17:40:39.094Z,25.08
2023-06-30T17:42:44.194Z,24.76
2023-06-30T17:44:49.415Z,24.39
2023-06-30T17:46:54.958Z,24.02
2023-06-30T17:49:23.598Z,23.74
2023-06-30T17:51:28.893Z,23.43
2023-06-30T17:53:35.013Z,23.09
2023-06-30T17:55:40.184Z,22.77
2023-06-30T17:57:45.260Z,22.48
2023-06-30T17:59:50.517Z,22.25
2023-06-30T18:01:55.811Z,22.05
2023-06-30T18:04:00.765Z,21.86
2023-06-30T18:06:05.849Z,21.71
2023-06-30T18:08:12.436Z,21.63
2023-06-30T18:10:18.259Z,21.58
2023-06-30T18:12:24.206Z,21.53
2023-06-30T18:14:31.292Z,21.50
2023-06-30T18:16:36.657Z,21.50
2023-06-30T18:18:41.905Z,21.52
2023-06-30T18:20:48.363Z,21.55
2023-06-30T18:22:53.605Z,21.57
2023-06-30T18:24:58.835Z,21.61
2023-06-30T18:27:05.177Z,21.65
2023-06-30T18:29:10.853Z,21.71
2023-06-30T18:31:16.055Z,21.76
2023-06-30T18:33:22.837Z,21.80
2023-06-30T18:35:28.547Z,21.83
2023-06-30T18:37:35.166Z,21.80
2023-06-30T18:39:40.357Z,21.73
2023-06-30T18:41:46.380Z,21.70
2023-06-30T18:43:53.181Z,21.66
2023-06-30T18:46:00.092Z,21.62
2023-06-30T18:48:06.505Z,21.57
2023-06-30T18:50:12.708Z,21.50
2023-06-30T18:52:19.151Z,21.43
2023-06-30T18:54:25.018Z,21.36
2023-06-30T18:56:30.854Z,21.33
2023-06-30T18:58:37.483Z,21.29
2023-06-30T19:00:44.242Z,21.26
2023-06-30T19:02:49.881Z,21.25
2023-06-30T19:04:55.252Z,21.25
2023-06-30T19:07:01.005Z,21.24
2023-06-30T19:09:07.421Z,21.21
2023-06-30T19:11:13.644Z,21.22
2023-06-30T19:13:19.533Z,21.21
2023-06-30T19:15:25.605Z,21.20
2023-06-30T19:17:34.722Z,21.20
2023-06-30T19:19:41.102Z,21.23
2023-06-30T19:21:46.177Z,21.25
2023-06-30T19:23:52.161Z,21.27
2023-06-30T19:25:58.122Z,21.29
2023-06-30T19:28:04.153Z,21.33
2023-06-30T19:30:13.057Z,21.34
2023-06-30T19:32:19.036Z,21.35
2023-06-30T19:34:25.020Z,21.34
2023-06-30T19:36:34.087Z,21.34
2023-06-30T19:38:41.005Z,21.34
2023-06-30T19:40:49.555Z,21.34
2023-06-30T19:42:55.124Z,21.35
2023-06-30T19:45:02.191Z,21.35
2023-06-30T19:47:08.731Z,21.36
2023-06-30T19:49:15.100Z,21.36
2023-06-30T19:51:21.011Z,21.30
2023-06-30T19:53:26.178Z,21.16
2023-06-30T19:55:33.363Z,20.99
2023-06-30T19:57:39.012Z,20.86
2023-06-30T19:59:45.011Z,20.74
2023-06-30T20:01:50.128Z,20.66
2023-06-30T20:03:56.326Z,20.58
2023-06-30T20:06:01.472Z,20.53
2023-06-30T20:08:07.381Z,20.50
2023-06-30T20:10:13.715Z,20.49
2023-06-30T20:12:18.825Z,20.49
2023-06-30T20:14:24.542Z,20.48
2023-06-30T20:16:29.648Z,20.47
2023-06-30T20:18:35.085Z,20.47
2023-06-30T20:20:41.975Z,20.45
2023-06-30T20:22:47.810Z,20.45
2023-06-30T20:24:55.144Z,20.44
2023-06-30T20:27:02.034Z,20.44
2023-06-30T20:29:08.765Z,20.43
2023-06-30T20:31:16.279Z,20.44
2023-06-30T20:33:22.529Z,20.45
2023-06-30T20:35:28.439Z,20.46
2023-06-30T20:37:34.108Z,20.47
2023-06-30T20:39:40.069Z,20.47
2023-06-30T20:41:46.854Z,20.47
2023-06-30T20:43:51.857Z,20.47
2023-06-30T20:45:57.843Z,20.47
2023-06-30T20:48:03.272Z,20.46
2023-06-30T20:50:09.983Z,20.46
2023-06-30T20:52:18.459Z,20.44
2023-06-30T20:54:23.613Z,20.42
2023-06-30T20:56:29.296Z,20.40
2023-06-30T20:58:34.696Z,20.39
2023-06-30T21:00:39.746Z,20.37
2023-06-30T21:02:44.878Z,20.36
2023-06-30T21:04:50.029Z,20.34
2023-06-30T21:06:55.113Z,20.32
2023-06-30T21:09:00.279Z,20.32
2023-06-30T21:11:05.052Z,20.31
2023-06-30T21:13:09.901Z,20.30
2023-06-30T21:15:17.708Z,20.29
2023-06-30T21:17:22.914Z,20.29
2023-06-30T21:19:27.759Z,20.28
2023-06-30T21:21:32.768Z,20.28
2023-06-30T21:23:37.807Z,20.28
2023-06-30T21:25:42.630Z,20.29
2023-06-30T21:27:47.558Z,20.29
2023-06-30T21:29:52.311Z,20.29
2023-06-30T21:31:57.169Z,20.30
2023-06-30T21:34:02.161Z,20.31
2023-06-30T21:36:07.427Z,20.32
2023-06-30T21:38:12.714Z,20.33
2023-06-30T21:40:17.959Z,20.35
2023-06-30T21:42:22.819Z,20.36
2023-06-30T21:44:27.719Z,20.37
2023-06-30T21:46:32.679Z,20.38
2023-06-30T21:48:37.562Z,20.39
2023-06-30T21:50:45.542Z,20.40
2023-06-30T21:52:50.565Z,20.39
2023-06-30T21:54:55.616Z,20.39
2023-06-30T21:57:00.467Z,20.40
2023-06-30T21:59:05.381Z,20.41
2023-06-30T22:01:10.356Z,20.40
2023-06-30T22:03:15.401Z,20.39
2023-06-30T22:05:23.249Z,20.38
2023-06-30T22:07:28.146Z,20.37
2023-06-30T22:09:33.044Z,20.38
2023-06-30T22:11:37.982Z,20.39
2023-06-30T22:13:42.783Z,20.38
2023-06-30T22:15:47.774Z,20.38
2023-06-30T22:17:52.789Z,20.38
2023-06-30T22:19:57.937Z,20.38
2023-06-30T22:22:02.990Z,20.38
2023-06-30T22:24:08.961Z,20.40
2023-06-30T22:26:13.911Z,20.44
2023-06-30T22:28:18.876Z,20.47
2023-06-30T22:30:26.019Z,20.46
2023-06-30T22:32:31.006Z,20.46
2023-06-30T22:34:35.919Z,20.46
2023-06-30T22:36:40.955Z,20.44
2023-06-30T22:38:45.903Z,20.43
2023-06-30T22:40:50.915Z,20.41
2023-06-30T22:42:55.723Z,20.38
2023-06-30T22:45:00.615Z,20.34
2023-06-30T22:47:06.265Z,20.30
2023-06-30T22:49:11.237Z,20.25
2023-06-30T22:51:17.848Z,20.20
2023-06-30T22:53:22.828Z,20.14
2023-06-30T22:55:27.956Z,20.09
2023-06-30T22:57:32.905Z,20.05
2023-06-30T22:59:38.157Z,20.04
2023-06-30T23:01:43.219Z,20.03
2023-06-30T23:03:48.260Z,20.02
2023-06-30T23:05:53.061Z,20.00
2023-06-30T23:07:57.998Z,19.97
2023-06-30T23:10:02.764Z,19.93
2023-06-30T23:12:09.118Z,19.90
2023-06-30T23:14:14.259Z,19.88
2023-06-30T23:16:19.145Z,19.86
2023-06-30T23:18:24.281Z,19.85
2023-06-30T23:20:29.202Z,19.81
2023-06-30T23:22:34.003Z,19.79
2023-06-30T23:24:40.830Z,19.78
2023-06-30T23:26:45.688Z,19.79
2023-06-30T23:28:50.764Z,19.80
2023-06-30T23:30:55.793Z,19.80
2023-06-30T23:33:00.906Z,19.81
2023-06-30T23:35:06.245Z,19.80
2023-06-30T23:37:13.128Z,19.81
2023-06-30T23:39:18.182Z,19.82
2023-06-30T23:41:23.081Z,19.82
2023-06-30T23:43:27.812Z,19.82
2023-06-30T23:45:32.732Z,19.82
2023-06-30T23:47:37.650Z,19.82
2023-06-30T23:49:42.538Z,19.82
2023-06-30T23:51:47.555Z,19.80
2023-06-30T23:53:52.420Z,19.79
2023-06-30T23:55:57.353Z,19.79
2023-06-30T23:58:02.270Z,19.79
